Time;durP1;ratioP1;P1;durP2;ratioP2;P2;SDS_P1;SDS_P2;PMS_P1;PMS_P2;Temp;Humidity;BMP_temperature;BMP_pressure;BME280_temperature;BME280_humidity;BME280_pressure;Samples;Min_cycle;Max_cycle;Signal;HPM_P1;HPM_P2
2021/03/23 00:02:08;;;;;;;;;;;9.30;58.30;;;;;;5016090;28;19933;-68
2021/03/23 00:04:35;;;;;;;;;;;9.30;58.20;;;;;;5015118;28;19925;-67
2021/03/23 00:07:01;;;;;;;;;;;9.30;58.20;;;;;;5028604;28;19940;-68
2021/03/23 00:09:28;;;;;;;;;;;9.30;58.30;;;;;;5020631;28;19926;-68
2021/03/23 00:11:54;;;;;;;;;;;9.30;58.30;;;;;;5018506;28;19925;-68
2021/03/23 00:14:20;;;;;;;;;;;9.30;58.40;;;;;;5027401;28;20294;-68
2021/03/23 00:16:46;;;;;;;;;;;9.30;58.40;;;;;;5000753;28;19932;-68
2021/03/23 00:19:14;;;;;;;;;;;9.30;58.50;;;;;;4996313;28;19933;-68
2021/03/23 00:21:41;;;;;;;;;;;9.30;58.50;;;;;;5014215;28;20547;-68
2021/03/23 00:24:08;;;;;;;;;;;9.30;58.50;;;;;;5012547;28;19936;-68
2021/03/23 00:26:34;;;;;;;;;;;9.30;58.60;;;;;;5015254;28;20382;-68
2021/03/23 00:29:00;;;;;;;;;;;9.30;58.60;;;;;;5014731;28;19925;-68
2021/03/23 00:31:28;;;;;;;;;;;9.30;58.70;;;;;;5015851;28;19934;-68
2021/03/23 00:33:55;;;;;;;;;;;9.30;58.70;;;;;;5014925;28;19930;-68
2021/03/23 00:36:26;;;;;;;;;;;9.30;58.80;;;;;;5020494;28;19925;-68
2021/03/23 00:38:54;;;;;;;;;;;9.30;58.80;;;;;;5034284;28;20389;-68
2021/03/23 00:41:20;;;;;;;;;;;9.30;58.70;;;;;;5016088;28;19933;-68
2021/03/23 00:43:46;;;;;;;;;;;9.40;58.70;;;;;;5013943;28;19929;-68
2021/03/23 00:46:12;;;;;;;;;;;9.40;58.60;;;;;;5031546;28;19925;-68
2021/03/23 00:48:39;;;;;;;;;;;9.50;58.50;;;;;;5034076;28;20302;-68
2021/03/23 00:51:05;;;;;;;;;;;9.50;58.40;;;;;;5029492;28;19932;-68
2021/03/23 00:53:31;;;;;;;;;;;9.50;58.40;;;;;;5020907;28;19926;-68
2021/03/23 00:56:01;;;;;;;;;;;9.50;58.30;;;;;;5015164;28;19933;-68
2021/03/23 00:58:28;;;;;;;;;;;9.50;58.30;;;;;;5013808;28;19926;-67
2021/03/23 01:00:54;;;;;;;;;;;9.50;58.30;;;;;;5018633;28;19925;-68
2021/03/23 01:03:21;;;;;;;;;;;9.50;58.50;;;;;;5024350;28;20326;-67
2021/03/23 01:05:49;;;;;;;;;;;9.50;58.60;;;;;;5015752;28;20008;-68
2021/03/23 01:08:15;;;;;;;;;;;9.50;58.80;;;;;;5032996;28;19929;-68
2021/03/23 01:10:42;;;;;;;;;;;9.50;59.00;;;;;;5032002;28;19925;-68
2021/03/23 01:13:09;;;;;;;;;;;9.50;59.10;;;;;;5016944;28;19948;-67
2021/03/23 01:15:36;;;;;;;;;;;9.50;59.30;;;;;;5012310;28;19929;-68
2021/03/23 01:18:02;;;;;;;;;;;9.50;59.40;;;;;;5023852;28;19925;-68
2021/03/23 01:20:29;;;;;;;;;;;9.50;59.40;;;;;;5025773;28;19925;-68
2021/03/23 01:22:55;;;;;;;;;;;9.50;59.40;;;;;;5013437;28;19929;-68
2021/03/23 01:25:22;;;;;;;;;;;9.50;59.30;;;;;;5013648;28;19948;-68
2021/03/23 01:27:49;;;;;;;;;;;9.50;59.10;;;;;;5013678;28;19925;-68
2021/03/23 01:30:18;;;;;;;;;;;9.50;59.20;;;;;;5027278;28;19925;-69
2021/03/23 01:32:45;;;;;;;;;;;9.50;59.10;;;;;;5020976;28;19926;-68
2021/03/23 01:35:11;;;;;;;;;;;9.40;59.20;;;;;;5013374;28;19948;-68
2021/03/23 01:37:38;;;;;;;;;;;9.40;59.20;;;;;;5013388;28;19929;-68
2021/03/23 01:40:05;;;;;;;;;;;9.50;59.40;;;;;;5013258;28;19925;-69
2021/03/23 01:42:42;;;;;;;;;;;9.40;59.40;;;;;;5013275;28;19925;-68
2021/03/23 01:45:21;;;;;;;;;;;9.40;59.30;;;;;;5023991;28;19956;-68
2021/03/23 01:47:48;;;;;;;;;;;9.40;59.30;;;;;;5013160;28;19925;-68
2021/03/23 01:50:15;;;;;;;;;;;9.40;59.30;;;;;;5013501;28;19941;-68
2021/03/23 01:52:42;;;;;;;;;;;9.40;59.40;;;;;;5018173;28;19937;-68
2021/03/23 01:55:10;;;;;;;;;;;9.40;59.50;;;;;;5014225;28;19925;-68
2021/03/23 01:57:37;;;;;;;;;;;9.30;59.20;;;;;;5013088;28;19937;-69
2021/03/23 02:00:05;;;;;;;;;;;9.20;59.60;;;;;;5012825;28;19968;-68
2021/03/23 02:02:32;;;;;;;;;;;9.10;59.80;;;;;;5012867;28;19926;-68
2021/03/23 02:04:58;;;;;;;;;;;9.10;60.00;;;;;;5022066;28;19980;-68
2021/03/23 02:07:24;;;;;;;;;;;9.10;60.10;;;;;;5022626;28;19933;-69
2021/03/23 02:09:51;;;;;;;;;;;9.10;60.10;;;;;;5031929;28;20293;-68
2021/03/23 02:12:19;;;;;;;;;;;9.20;60.10;;;;;;5030576;28;19925;-68
2021/03/23 02:14:46;;;;;;;;;;;9.20;60.10;;;;;;5029635;28;19933;-68
2021/03/23 02:17:13;;;;;;;;;;;9.20;60.30;;;;;;5024303;28;19932;-68
2021/03/23 02:19:41;;;;;;;;;;;9.20;60.30;;;;;;5029295;28;19929;-68
2021/03/23 02:22:12;;;;;;;;;;;9.20;60.30;;;;;;5023305;28;19926;-69
2021/03/23 02:24:39;;;;;;;;;;;9.20;60.40;;;;;;5013278;28;19926;-68
2021/03/23 02:27:05;;;;;;;;;;;9.20;60.30;;;;;;5027900;28;19925;-68
2021/03/23 02:29:32;;;;;;;;;;;9.20;60.40;;;;;;5026199;28;19925;-68
2021/03/23 02:32:00;;;;;;;;;;;9.20;60.50;;;;;;5030194;28;20404;-68
2021/03/23 02:34:26;;;;;;;;;;;9.20;60.60;;;;;;5032009;28;19925;-68
2021/03/23 02:36:53;;;;;;;;;;;9.20;60.70;;;;;;5032569;28;20420;-68
2021/03/23 02:39:21;;;;;;;;;;;9.20;60.70;;;;;;5019943;28;19925;-68
2021/03/23 02:41:48;;;;;;;;;;;9.20;60.70;;;;;;5025064;28;20435;-68
2021/03/23 02:44:14;;;;;;;;;;;9.20;60.70;;;;;;5030823;28;20286;-68
2021/03/23 02:46:41;;;;;;;;;;;9.20;60.50;;;;;;5028224;28;20333;-68
2021/03/23 02:49:08;;;;;;;;;;;9.20;60.50;;;;;;5012409;28;19925;-68
2021/03/23 02:51:34;;;;;;;;;;;9.20;60.70;;;;;;5025103;28;20036;-68
2021/03/23 02:54:01;;;;;;;;;;;9.20;60.70;;;;;;5012237;28;19926;-68
2021/03/23 02:56:28;;;;;;;;;;;9.20;60.40;;;;;;5016078;28;19933;-68
2021/03/23 02:58:54;;;;;;;;;;;9.20;60.70;;;;;;5027195;28;20405;-69
2021/03/23 03:01:20;;;;;;;;;;;9.20;60.80;;;;;;5026061;28;20381;-68
2021/03/23 03:03:46;;;;;;;;;;;9.20;60.80;;;;;;5028127;28;20298;-68
2021/03/23 03:06:13;;;;;;;;;;;9.20;60.90;;;;;;5014321;28;19925;-68
2021/03/23 03:08:40;;;;;;;;;;;9.20;60.90;;;;;;5016087;28;19932;-69
2021/03/23 03:11:07;;;;;;;;;;;9.20;60.80;;;;;;5016986;28;19926;-68
2021/03/23 03:13:35;;;;;;;;;;;9.20;60.70;;;;;;5035861;28;19998;-68
2021/03/23 03:16:01;;;;;;;;;;;9.20;60.70;;;;;;5034006;28;19933;-67
2021/03/23 03:18:28;;;;;;;;;;;9.20;60.60;;;;;;5027506;28;20337;-68
2021/03/23 03:20:55;;;;;;;;;;;9.30;60.60;;;;;;5021471;28;19948;-68
2021/03/23 03:23:22;;;;;;;;;;;9.30;60.60;;;;;;5026948;28;19995;-68
2021/03/23 03:25:48;;;;;;;;;;;9.30;60.70;;;;;;5017042;28;20396;-68
2021/03/23 03:28:14;;;;;;;;;;;9.30;60.80;;;;;;5015858;28;19983;-67
2021/03/23 03:30:42;;;;;;;;;;;9.20;60.80;;;;;;5014051;28;20344;-67
2021/03/23 03:33:10;;;;;;;;;;;9.20;60.90;;;;;;5000942;28;19926;-67
2021/03/23 03:35:37;;;;;;;;;;;9.20;61.00;;;;;;5016949;28;19929;-68
2021/03/23 03:38:04;;;;;;;;;;;9.20;61.10;;;;;;5034559;28;20271;-68
2021/03/23 03:40:31;;;;;;;;;;;9.10;61.10;;;;;;5035449;28;19952;-68
2021/03/23 03:42:58;;;;;;;;;;;9.10;61.20;;;;;;5026975;28;20357;-68
2021/03/23 03:45:24;;;;;;;;;;;9.10;61.30;;;;;;5015719;28;19926;-69
2021/03/23 03:47:51;;;;;;;;;;;9.20;61.50;;;;;;5016644;28;19929;-68
2021/03/23 03:50:18;;;;;;;;;;;9.10;61.30;;;;;;5015386;28;19932;-68
2021/03/23 03:52:45;;;;;;;;;;;9.20;61.40;;;;;;5033210;28;20003;-68
2021/03/23 03:55:13;;;;;;;;;;;9.20;61.20;;;;;;5021851;28;19953;-68
2021/03/23 03:57:39;;;;;;;;;;;9.20;61.20;;;;;;5024523;28;19972;-68
2021/03/23 04:00:06;;;;;;;;;;;9.20;61.20;;;;;;5022182;28;19959;-68
2021/03/23 04:02:33;;;;;;;;;;;9.20;61.20;;;;;;5015255;28;19991;-68
2021/03/23 04:05:00;;;;;;;;;;;9.20;61.30;;;;;;5015314;28;19933;-68
2021/03/23 04:07:26;;;;;;;;;;;9.20;61.40;;;;;;5015387;28;19925;-68
2021/03/23 04:09:52;;;;;;;;;;;9.20;61.40;;;;;;5014927;28;19929;-68
2021/03/23 04:12:18;;;;;;;;;;;9.20;61.40;;;;;;5023389;28;20408;-68
2021/03/23 04:14:45;;;;;;;;;;;9.20;61.50;;;;;;5029951;28;19926;-68
2021/03/23 04:17:11;;;;;;;;;;;9.20;61.60;;;;;;5014992;28;19980;-69
2021/03/23 04:19:37;;;;;;;;;;;9.20;61.50;;;;;;5015910;28;19925;-68
2021/03/23 04:22:05;;;;;;;;;;;9.20;61.60;;;;;;5015699;28;20401;-68
2021/03/23 04:24:31;;;;;;;;;;;9.10;61.60;;;;;;5014099;28;20232;-69
2021/03/23 04:26:58;;;;;;;;;;;9.10;61.70;;;;;;5014764;28;20386;-68
2021/03/23 04:29:25;;;;;;;;;;;9.10;61.80;;;;;;5015562;28;19932;-68
2021/03/23 04:31:51;;;;;;;;;;;9.10;61.90;;;;;;5015141;28;19948;-68
2021/03/23 04:34:18;;;;;;;;;;;9.10;61.80;;;;;;5014681;28;19925;-68
2021/03/23 04:36:44;;;;;;;;;;;9.10;61.80;;;;;;5014246;28;19940;-68
2021/03/23 04:39:13;;;;;;;;;;;9.10;62.60;;;;;;5014264;28;19926;-68
2021/03/23 04:41:39;;;;;;;;;;;9.10;62.00;;;;;;5014988;28;19926;-67
2021/03/23 04:44:06;;;;;;;;;;;9.10;61.90;;;;;;5016166;28;19925;-68
2021/03/23 04:46:33;;;;;;;;;;;9.10;61.90;;;;;;5018606;28;19929;-68
2021/03/23 04:48:59;;;;;;;;;;;9.00;61.90;;;;;;5014516;28;19932;-68
2021/03/23 04:51:26;;;;;;;;;;;9.00;62.00;;;;;;5030476;28;19929;-68
2021/03/23 04:53:58;;;;;;;;;;;9.00;62.00;;;;;;5017776;28;20374;-68
2021/03/23 04:56:26;;;;;;;;;;;9.00;62.10;;;;;;5014133;28;19925;-67
2021/03/23 04:58:53;;;;;;;;;;;9.00;62.30;;;;;;5013843;28;19929;-68
2021/03/23 05:01:19;;;;;;;;;;;9.00;62.30;;;;;;5024321;28;19996;-68
2021/03/23 05:03:45;;;;;;;;;;;9.00;62.30;;;;;;5014023;28;19925;-68
2021/03/23 05:06:12;;;;;;;;;;;9.00;62.30;;;;;;5014195;28;19979;-68
2021/03/23 05:08:41;;;;;;;;;;;9.00;62.20;;;;;;5014186;28;19925;-68
2021/03/23 05:11:08;;;;;;;;;;;9.00;62.20;;;;;;5017792;28;20378;-67
2021/03/23 05:13:35;;;;;;;;;;;9.00;62.20;;;;;;5027979;28;19933;-68
2021/03/23 05:16:02;;;;;;;;;;;9.00;62.20;;;;;;5013947;28;19926;-68
2021/03/23 05:18:28;;;;;;;;;;;9.00;62.30;;;;;;5012045;28;19926;-68
2021/03/23 05:20:55;;;;;;;;;;;9.00;62.30;;;;;;5013253;28;19948;-67
2021/03/23 05:23:21;;;;;;;;;;;9.00;62.30;;;;;;5013791;28;19929;-68
2021/03/23 05:25:47;;;;;;;;;;;9.00;62.40;;;;;;5013792;28;19933;-67
2021/03/23 05:28:14;;;;;;;;;;;9.00;62.40;;;;;;5013347;28;19956;-67
2021/03/23 05:30:42;;;;;;;;;;;9.00;62.40;;;;;;5014633;28;19932;-67
2021/03/23 05:33:09;;;;;;;;;;;9.00;62.50;;;;;;5026127;28;19929;-68
2021/03/23 05:35:35;;;;;;;;;;;9.10;62.60;;;;;;5028962;28;19944;-68
2021/03/23 05:38:02;;;;;;;;;;;9.10;62.50;;;;;;5033116;28;19951;-68
2021/03/23 05:40:31;;;;;;;;;;;9.10;62.40;;;;;;5018774;28;19948;-68
2021/03/23 05:43:03;;;;;;;;;;;9.10;62.30;;;;;;5017136;28;19933;-69
2021/03/23 05:45:34;;;;;;;;;;;9.00;62.20;;;;;;5018104;28;19925;-68
2021/03/23 05:48:12;;;;;;;;;;;9.10;62.30;;;;;;5013835;28;19929;-68
2021/03/23 05:50:39;;;;;;;;;;;9.10;62.40;;;;;;5021067;28;19933;-68
2021/03/23 05:53:10;;;;;;;;;;;9.10;62.30;;;;;;5013119;28;19937;-68
2021/03/23 05:55:38;;;;;;;;;;;9.10;62.40;;;;;;5016848;28;20247;-68
2021/03/23 05:58:06;;;;;;;;;;;9.10;62.50;;;;;;5013086;28;20020;-68
2021/03/23 06:00:34;;;;;;;;;;;9.20;62.60;;;;;;5013271;28;19933;-68
2021/03/23 06:03:03;;;;;;;;;;;9.10;62.10;;;;;;5013097;28;20453;-68
2021/03/23 06:05:42;;;;;;;;;;;9.10;62.20;;;;;;5016079;28;20338;-68
2021/03/23 06:08:25;;;;;;;;;;;9.20;62.30;;;;;;5013744;28;20341;-68
2021/03/23 06:11:06;;;;;;;;;;;9.20;62.40;;;;;;5010267;28;20370;-68
2021/03/23 06:13:33;;;;;;;;;;;9.20;62.20;;;;;;5021945;28;19979;-68
2021/03/23 06:16:05;;;;;;;;;;;9.20;62.10;;;;;;5012247;28;20382;-68
2021/03/23 06:18:34;;;;;;;;;;;9.20;61.80;;;;;;5012370;28;19948;-68
2021/03/23 06:21:03;;;;;;;;;;;9.30;61.90;;;;;;5020517;28;19956;-69
2021/03/23 06:23:36;;;;;;;;;;;9.30;61.80;;;;;;5025882;28;19979;-68
2021/03/23 06:26:05;;;;;;;;;;;9.30;61.80;;;;;;5010651;28;19932;-68
2021/03/23 06:28:38;;;;;;;;;;;9.30;61.90;;;;;;5012412;28;20445;-69
2021/03/23 06:31:14;;;;;;;;;;;9.30;61.60;;;;;;5018874;28;19925;-68
2021/03/23 06:33:41;;;;;;;;;;;9.30;61.50;;;;;;5013756;28;19934;-68
2021/03/23 06:36:18;;;;;;;;;;;9.40;61.70;;;;;;5011582;28;19988;-68
2021/03/23 06:38:44;;;;;;;;;;;9.40;61.70;;;;;;5025137;28;19925;-68
2021/03/23 06:41:14;;;;;;;;;;;9.50;61.70;;;;;;5017605;28;20003;-67
2021/03/23 06:43:42;;;;;;;;;;;9.50;61.60;;;;;;5018461;28;19932;-67
2021/03/23 06:46:18;;;;;;;;;;;9.50;61.30;;;;;;5014347;28;19933;-67
2021/03/23 06:48:45;;;;;;;;;;;9.60;61.20;;;;;;5012723;28;19983;-67
2021/03/23 06:51:14;;;;;;;;;;;9.60;61.30;;;;;;5017717;28;19941;-67
2021/03/23 06:53:40;;;;;;;;;;;9.60;60.90;;;;;;5020347;28;19925;-68
2021/03/23 06:56:18;;;;;;;;;;;9.60;60.90;;;;;;5015365;28;19926;-69
2021/03/23 06:58:44;;;;;;;;;;;9.70;60.90;;;;;;5014737;28;19949;-68
2021/03/23 07:01:15;;;;;;;;;;;9.70;60.70;;;;;;5016083;28;19932;-68
2021/03/23 07:03:41;;;;;;;;;;;9.70;60.80;;;;;;5019478;28;19932;-69
2021/03/23 07:06:17;;;;;;;;;;;9.80;60.80;;;;;;5015012;28;20056;-68
2021/03/23 07:08:44;;;;;;;;;;;9.80;60.70;;;;;;5017776;28;20108;-69
2021/03/23 07:11:10;;;;;;;;;;;9.90;60.70;;;;;;5023382;28;19925;-69
2021/03/23 07:13:38;;;;;;;;;;;9.90;60.40;;;;;;5035397;28;19925;-68
2021/03/23 07:16:15;;;;;;;;;;;9.90;60.00;;;;;;5018425;28;20390;-68
2021/03/23 07:18:43;;;;;;;;;;;10.00;58.90;;;;;;5021304;28;20377;-69
2021/03/23 07:21:12;;;;;;;;;;;10.00;58.80;;;;;;5015529;28;20286;-68
2021/03/23 07:23:40;;;;;;;;;;;10.10;58.70;;;;;;5021956;28;20282;-69
2021/03/23 07:26:14;;;;;;;;;;;10.10;58.70;;;;;;5027725;28;20347;-69
2021/03/23 07:28:43;;;;;;;;;;;10.20;58.70;;;;;;4995960;28;19933;-69
2021/03/23 07:31:13;;;;;;;;;;;10.20;58.40;;;;;;5010182;28;19926;-69
2021/03/23 07:33:46;;;;;;;;;;;10.20;58.20;;;;;;5015859;28;19925;-68
2021/03/23 07:36:14;;;;;;;;;;;10.20;58.30;;;;;;5015373;28;19929;-68
2021/03/23 07:38:46;;;;;;;;;;;10.20;58.50;;;;;;5029883;28;19925;-68
2021/03/23 07:41:17;;;;;;;;;;;10.20;58.60;;;;;;5014426;28;19937;-67
2021/03/23 07:43:46;;;;;;;;;;;10.30;58.50;;;;;;5017691;28;19932;-68
2021/03/23 07:46:15;;;;;;;;;;;10.30;58.20;;;;;;5024292;28;19925;-69
2021/03/23 07:48:44;;;;;;;;;;;10.30;58.10;;;;;;5018313;28;19925;-69
2021/03/23 07:51:18;;;;;;;;;;;10.40;58.20;;;;;;5015411;28;20286;-68
2021/03/23 07:53:45;;;;;;;;;;;10.40;58.20;;;;;;5030535;28;20279;-69
2021/03/23 07:56:19;;;;;;;;;;;10.40;58.30;;;;;;5024506;28;19925;-69
2021/03/23 07:58:51;;;;;;;;;;;10.50;58.30;;;;;;5013471;28;19925;-69
2021/03/23 08:01:22;;;;;;;;;;;10.50;58.10;;;;;;5014770;28;19925;-69
2021/03/23 08:04:12;;;;;;;;;;;10.50;57.80;;;;;;5015142;28;19929;-69
2021/03/23 08:06:45;;;;;;;;;;;10.60;57.50;;;;;;5014699;28;19925;-70
2021/03/23 08:09:35;;;;;;;;;;;10.60;57.50;;;;;;5014500;28;19925;-70
2021/03/23 08:12:09;;;;;;;;;;;10.70;57.40;;;;;;4980058;28;19930;-69
2021/03/23 08:14:49;;;;;;;;;;;10.70;57.40;;;;;;5007591;28;19926;-69
2021/03/23 08:17:33;;;;;;;;;;;10.70;57.20;;;;;;5015141;28;19925;-69
2021/03/23 08:20:07;;;;;;;;;;;10.70;56.60;;;;;;5014580;28;19933;-69
2021/03/23 08:22:51;;;;;;;;;;;10.70;56.90;;;;;;5014915;28;19929;-70
2021/03/23 08:25:24;;;;;;;;;;;10.60;57.00;;;;;;5012653;28;19925;-69
2021/03/23 08:28:10;;;;;;;;;;;10.70;57.00;;;;;;5014703;28;19948;-69
2021/03/23 08:30:45;;;;;;;;;;;10.70;57.10;;;;;;5014029;28;19932;-69
2021/03/23 08:33:18;;;;;;;;;;;10.80;57.10;;;;;;5014543;28;19980;-69
2021/03/23 08:35:52;;;;;;;;;;;10.90;57.10;;;;;;5014101;28;19925;-69
2021/03/23 08:38:30;;;;;;;;;;;11.10;56.80;;;;;;5014471;28;20379;-69
2021/03/23 08:41:00;;;;;;;;;;;11.20;56.50;;;;;;5014045;28;19925;-69
2021/03/23 08:43:32;;;;;;;;;;;11.30;56.20;;;;;;5014233;28;19926;-69
2021/03/23 08:45:59;;;;;;;;;;;11.30;55.70;;;;;;5019119;28;19940;-70
2021/03/23 08:48:27;;;;;;;;;;;11.30;55.50;;;;;;5014421;28;19929;-70
2021/03/23 08:50:56;;;;;;;;;;;11.30;55.40;;;;;;5012442;28;20028;-70
2021/03/23 08:53:54;;;;;;;;;;;11.40;55.50;;;;;;5013919;28;19933;-70
2021/03/23 08:56:39;;;;;;;;;;;11.50;55.60;;;;;;4953388;28;19926;-70
2021/03/23 08:59:17;;;;;;;;;;;11.60;55.30;;;;;;5007848;28;20297;-70
2021/03/23 09:01:43;;;;;;;;;;;11.70;55.00;;;;;;5013693;28;19932;-70
2021/03/23 09:04:29;;;;;;;;;;;11.70;54.50;;;;;;5013732;28;19925;-70
2021/03/23 09:06:56;;;;;;;;;;;11.80;53.80;;;;;;4994293;28;19969;-69
2021/03/23 09:09:32;;;;;;;;;;;11.90;54.00;;;;;;4994388;28;19949;-69
2021/03/23 09:12:01;;;;;;;;;;;11.90;53.80;;;;;;5012927;28;20033;-70
2021/03/23 09:14:30;;;;;;;;;;;11.90;53.70;;;;;;5019848;28;20396;-70
2021/03/23 09:17:15;;;;;;;;;;;12.00;53.40;;;;;;5033706;28;20402;-70
2021/03/23 09:19:43;;;;;;;;;;;12.10;52.70;;;;;;5005300;28;19925;-71
2021/03/23 09:22:14;;;;;;;;;;;12.20;52.30;;;;;;5013395;28;19925;-70
2021/03/23 09:24:41;;;;;;;;;;;12.20;52.00;;;;;;5013708;28;19975;-71
2021/03/23 09:27:10;;;;;;;;;;;12.20;52.10;;;;;;5012873;28;20044;-71
2021/03/23 09:29:39;;;;;;;;;;;12.20;51.50;;;;;;5013230;28;19925;-71
2021/03/23 09:32:07;;;;;;;;;;;12.20;51.00;;;;;;5013554;28;20354;-71
2021/03/23 09:34:52;;;;;;;;;;;12.30;51.10;;;;;;5012160;28;19944;-71
2021/03/23 09:37:29;;;;;;;;;;;12.40;51.40;;;;;;5013610;28;19933;-72
2021/03/23 09:39:55;;;;;;;;;;;12.50;51.00;;;;;;5013166;28;19929;-71
2021/03/23 09:42:31;;;;;;;;;;;12.70;50.70;;;;;;5013489;28;19930;-71
2021/03/23 09:45:15;;;;;;;;;;;12.80;50.20;;;;;;5011113;28;19925;-71
2021/03/23 09:47:50;;;;;;;;;;;12.90;49.80;;;;;;4983835;28;19925;-72
2021/03/23 09:50:24;;;;;;;;;;;12.90;49.50;;;;;;4993803;28;19973;-71
2021/03/23 09:52:58;;;;;;;;;;;13.00;49.50;;;;;;4994410;28;19933;-71
2021/03/23 09:55:25;;;;;;;;;;;13.10;48.90;;;;;;5013380;28;19992;-71
2021/03/23 09:57:52;;;;;;;;;;;13.10;48.80;;;;;;5013089;28;19930;-71
2021/03/23 10:00:23;;;;;;;;;;;13.20;48.00;;;;;;5000855;28;20310;-71
2021/03/23 10:02:50;;;;;;;;;;;13.00;46.70;;;;;;5012994;28;19929;-71
2021/03/23 10:05:17;;;;;;;;;;;12.90;47.00;;;;;;5012156;28;20020;-71
2021/03/23 10:07:45;;;;;;;;;;;12.80;46.50;;;;;;4993415;28;19925;-71
2021/03/23 10:10:12;;;;;;;;;;;12.60;46.80;;;;;;4996946;28;19957;-71
2021/03/23 10:12:39;;;;;;;;;;;12.40;47.10;;;;;;5012225;28;19929;-71
2021/03/23 10:15:18;;;;;;;;;;;12.30;47.30;;;;;;5020084;28;19933;-71
2021/03/23 10:17:44;;;;;;;;;;;12.20;47.70;;;;;;5012938;28;20398;-71
2021/03/23 10:20:13;;;;;;;;;;;12.20;47.40;;;;;;5012944;28;19929;-71
2021/03/23 10:22:41;;;;;;;;;;;12.20;47.50;;;;;;5013168;28;19936;-71
2021/03/23 10:25:12;;;;;;;;;;;12.20;47.30;;;;;;5012588;28;19931;-71
2021/03/23 10:27:39;;;;;;;;;;;12.20;47.20;;;;;;5013138;28;19925;-71
2021/03/23 10:30:09;;;;;;;;;;;12.30;47.40;;;;;;5012141;28;19932;-71
2021/03/23 10:32:40;;;;;;;;;;;12.30;47.30;;;;;;5012978;28;19936;-70
2021/03/23 10:35:10;;;;;;;;;;;12.30;46.90;;;;;;5011680;28;19975;-70
2021/03/23 10:37:37;;;;;;;;;;;12.30;46.80;;;;;;5024801;28;20012;-70
2021/03/23 10:40:04;;;;;;;;;;;12.30;45.70;;;;;;5012899;28;19972;-70
2021/03/23 10:42:31;;;;;;;;;;;12.30;45.90;;;;;;5012563;28;19929;-70
2021/03/23 10:45:12;;;;;;;;;;;12.30;46.00;;;;;;5012631;28;19933;-70
2021/03/23 10:47:40;;;;;;;;;;;12.30;46.10;;;;;;5012650;28;19937;-70
2021/03/23 10:50:13;;;;;;;;;;;12.40;45.90;;;;;;5012059;28;19925;-71
2021/03/23 10:52:40;;;;;;;;;;;12.40;45.90;;;;;;5012357;28;19933;-70
2021/03/23 10:55:11;;;;;;;;;;;12.50;45.50;;;;;;5012571;28;19925;-70
2021/03/23 10:57:39;;;;;;;;;;;12.50;45.20;;;;;;5012590;28;19979;-70
2021/03/23 11:00:17;;;;;;;;;;;12.40;45.10;;;;;;5012391;28;20456;-70
2021/03/23 11:02:43;;;;;;;;;;;12.30;45.70;;;;;;5012501;28;19932;-70
2021/03/23 11:05:11;;;;;;;;;;;12.30;45.90;;;;;;5011172;28;19979;-70
2021/03/23 11:07:38;;;;;;;;;;;12.30;45.80;;;;;;5032182;28;20024;-71
2021/03/23 11:10:08;;;;;;;;;;;12.40;45.80;;;;;;5032254;28;19925;-70
2021/03/23 11:12:34;;;;;;;;;;;12.50;45.50;;;;;;5032286;28;20356;-70
2021/03/23 11:15:01;;;;;;;;;;;12.50;45.30;;;;;;5031042;28;19979;-70
2021/03/23 11:17:28;;;;;;;;;;;12.50;45.30;;;;;;5035566;28;19925;-70
2021/03/23 11:19:56;;;;;;;;;;;12.60;45.30;;;;;;5035833;28;19940;-71
2021/03/23 11:22:26;;;;;;;;;;;12.60;45.00;;;;;;5035726;28;19929;-71
2021/03/23 11:24:53;;;;;;;;;;;12.70;45.00;;;;;;5035712;28;20020;-70
2021/03/23 11:27:21;;;;;;;;;;;12.70;45.00;;;;;;5035837;28;19929;-71
2021/03/23 11:29:48;;;;;;;;;;;12.60;44.60;;;;;;5033821;28;19932;-70
2021/03/23 11:32:14;;;;;;;;;;;12.60;44.50;;;;;;5035500;28;19993;-70
2021/03/23 11:34:40;;;;;;;;;;;12.50;44.10;;;;;;5035492;28;19932;-70
2021/03/23 11:37:07;;;;;;;;;;;12.40;44.30;;;;;;5035133;28;19932;-70
2021/03/23 11:39:33;;;;;;;;;;;12.50;44.60;;;;;;5034897;28;19929;-70
2021/03/23 11:42:02;;;;;;;;;;;12.60;44.90;;;;;;5035025;28;19925;-70
2021/03/23 11:44:32;;;;;;;;;;;12.70;44.80;;;;;;5035149;28;19932;-70
2021/03/23 11:47:03;;;;;;;;;;;12.70;44.80;;;;;;5035310;28;19925;-70
2021/03/23 11:49:35;;;;;;;;;;;12.80;44.80;;;;;;5035120;28;20019;-70
2021/03/23 11:52:02;;;;;;;;;;;12.80;44.50;;;;;;5035033;28;20366;-70
2021/03/23 11:54:28;;;;;;;;;;;12.80;44.50;;;;;;5035088;28;19932;-70
2021/03/23 11:56:55;;;;;;;;;;;12.80;44.80;;;;;;5033078;28;19929;-70
2021/03/23 11:59:22;;;;;;;;;;;12.80;45.00;;;;;;5034828;28;20372;-70
2021/03/23 12:01:49;;;;;;;;;;;12.70;45.00;;;;;;5035129;28;19929;-70
2021/03/23 12:04:16;;;;;;;;;;;12.60;45.10;;;;;;5022082;28;20378;-70
2021/03/23 12:06:45;;;;;;;;;;;12.60;45.40;;;;;;5015255;28;19929;-70
2021/03/23 12:09:15;;;;;;;;;;;12.50;45.70;;;;;;5014857;28;19926;-72
2021/03/23 12:11:47;;;;;;;;;;;12.50;45.90;;;;;;5015007;28;19926;-70
2021/03/23 12:14:18;;;;;;;;;;;12.50;46.10;;;;;;5014687;28;19925;-70
2021/03/23 12:16:48;;;;;;;;;;;12.40;46.10;;;;;;5014613;28;19979;-70
2021/03/23 12:19:17;;;;;;;;;;;12.30;46.30;;;;;;5014728;28;19979;-70
2021/03/23 12:21:45;;;;;;;;;;;12.40;46.50;;;;;;5013568;28;20394;-70
2021/03/23 12:24:12;;;;;;;;;;;12.30;46.30;;;;;;5013667;28;20442;-71
2021/03/23 12:26:39;;;;;;;;;;;12.30;46.40;;;;;;5014491;28;20310;-70
2021/03/23 12:29:05;;;;;;;;;;;12.30;46.50;;;;;;5014156;28;19925;-70
2021/03/23 12:31:31;;;;;;;;;;;12.40;46.60;;;;;;5014501;28;19925;-70
2021/03/23 12:33:58;;;;;;;;;;;12.50;46.60;;;;;;5014230;28;19932;-71
2021/03/23 12:36:25;;;;;;;;;;;12.60;46.60;;;;;;5014429;28;20298;-71
2021/03/23 12:38:52;;;;;;;;;;;12.60;46.40;;;;;;5014495;28;20322;-71
2021/03/23 12:41:20;;;;;;;;;;;12.60;46.30;;;;;;4999210;28;20020;-71
2021/03/23 12:43:50;;;;;;;;;;;12.70;46.30;;;;;;4994798;28;19926;-76
2021/03/23 12:46:18;;;;;;;;;;;12.70;46.20;;;;;;5006071;28;20382;-73
2021/03/23 12:48:44;;;;;;;;;;;12.70;45.90;;;;;;4992430;28;20426;-72
2021/03/23 12:51:19;;;;;;;;;;;12.80;45.80;;;;;;4985010;28;19930;-71
2021/03/23 12:53:46;;;;;;;;;;;12.90;45.80;;;;;;4978702;28;19930;-71
2021/03/23 12:56:12;;;;;;;;;;;12.90;45.60;;;;;;4989726;28;19937;-71
2021/03/23 12:58:38;;;;;;;;;;;12.90;45.60;;;;;;4983795;28;19925;-71
2021/03/23 13:01:05;;;;;;;;;;;12.90;45.40;;;;;;4992647;28;19926;-70
2021/03/23 13:03:31;;;;;;;;;;;12.80;45.60;;;;;;5000654;28;19937;-70
2021/03/23 13:05:57;;;;;;;;;;;12.80;45.50;;;;;;5009510;28;19926;-70
2021/03/23 13:08:25;;;;;;;;;;;12.90;45.50;;;;;;5007425;28;20317;-71
2021/03/23 13:10:53;;;;;;;;;;;12.90;45.30;;;;;;5013458;28;20022;-70
2021/03/23 13:13:22;;;;;;;;;;;12.80;45.40;;;;;;5013618;28;19926;-71
2021/03/23 13:15:48;;;;;;;;;;;12.80;45.70;;;;;;5015472;28;19929;-70
2021/03/23 13:18:15;;;;;;;;;;;12.80;45.80;;;;;;5016009;28;19925;-71
2021/03/23 13:20:42;;;;;;;;;;;12.90;45.60;;;;;;5024722;28;19929;-70
2021/03/23 13:23:16;;;;;;;;;;;12.80;45.50;;;;;;5013576;28;19926;-70
2021/03/23 13:25:44;;;;;;;;;;;12.80;45.50;;;;;;5013636;28;19929;-70
2021/03/23 13:28:20;;;;;;;;;;;12.80;45.50;;;;;;5013520;28;19952;-70
2021/03/23 13:30:47;;;;;;;;;;;12.90;45.50;;;;;;5017631;28;20016;-71
2021/03/23 13:33:14;;;;;;;;;;;13.00;45.10;;;;;;5033010;28;19996;-70
2021/03/23 13:35:41;;;;;;;;;;;12.90;44.90;;;;;;5015300;28;20079;-71
2021/03/23 13:38:11;;;;;;;;;;;12.90;45.10;;;;;;5013401;28;19933;-71
2021/03/23 13:40:40;;;;;;;;;;;12.90;44.90;;;;;;5015137;28;19926;-70
2021/03/23 13:43:07;;;;;;;;;;;13.00;45.10;;;;;;5011625;28;19926;-70
2021/03/23 13:45:35;;;;;;;;;;;13.00;45.10;;;;;;5013974;28;19929;-70
2021/03/23 13:48:02;;;;;;;;;;;13.00;45.20;;;;;;5012820;28;19983;-71
2021/03/23 13:50:29;;;;;;;;;;;13.10;45.10;;;;;;5027350;28;19932;-71
2021/03/23 13:52:59;;;;;;;;;;;13.00;44.90;;;;;;5032923;28;19936;-71
2021/03/23 13:55:27;;;;;;;;;;;13.00;44.80;;;;;;5031435;28;19963;-71
2021/03/23 13:57:55;;;;;;;;;;;13.00;44.80;;;;;;5018194;28;19925;-71
2021/03/23 14:00:26;;;;;;;;;;;13.00;44.70;;;;;;5023696;28;20330;-70
2021/03/23 14:02:53;;;;;;;;;;;12.90;44.80;;;;;;5031872;28;19948;-71
2021/03/23 14:05:19;;;;;;;;;;;12.90;45.00;;;;;;5013123;28;19972;-70
2021/03/23 14:07:47;;;;;;;;;;;12.90;44.70;;;;;;5020746;28;19925;-70
2021/03/23 14:10:15;;;;;;;;;;;12.80;44.50;;;;;;5015597;28;19932;-71
2021/03/23 14:12:42;;;;;;;;;;;12.80;44.60;;;;;;5020784;28;19932;-71
2021/03/23 14:15:08;;;;;;;;;;;12.80;44.70;;;;;;5032505;28;19925;-71
2021/03/23 14:17:35;;;;;;;;;;;12.80;44.90;;;;;;5022488;28;19946;-71
2021/03/23 14:20:03;;;;;;;;;;;12.80;45.10;;;;;;5018247;28;19952;-71
2021/03/23 14:22:31;;;;;;;;;;;12.80;45.20;;;;;;5030724;28;19925;-71
2021/03/23 14:24:58;;;;;;;;;;;12.90;45.20;;;;;;5020248;28;19929;-71
2021/03/23 14:27:24;;;;;;;;;;;12.90;45.20;;;;;;5014749;28;20056;-71
2021/03/23 14:29:51;;;;;;;;;;;12.90;45.30;;;;;;5011443;28;19925;-71
2021/03/23 14:32:17;;;;;;;;;;;12.80;45.20;;;;;;5014229;28;19940;-71
2021/03/23 14:34:43;;;;;;;;;;;12.80;45.00;;;;;;5032369;28;19925;-70